Virtual LH

Virtual LH. There's no better way to fly
Since 2013.



AIRPORT MAP

METAR AND TAF INFORMATION

METAR FOR EHEH
ADDS - METARS form results

(1033 UTC 16 June 2019)
Data provider http://aviationweather.gov/metar/data/
 
METAR text: EHEH 161025Z AUTO 23009KT 180V260 9999 OVC052 20/13 Q1020 BLU 22010KT 9999 SCT026 BKN045
Conditions at: EHEH (EINDHOVEN RNLAFB, NL) observed 1025 UTC 16 June 2019
Temperature: 20.0°C (68°F)
Dewpoint: 13.0°C (55°F) [RH = 64%]
Pressure (altimeter): 30.12 inches Hg (1020.0 mb)
Winds: from the SW (230 degrees) at 10 MPH (9 knots; 4.6 m/s)
Visibility: 6 or more miles (10+ km)
Ceiling: 5200 feet AGL
Clouds: overcast cloud deck at 5200 feet AGL
scattered clouds at 2600 feet AGL
broken clouds at 4500 feet AGL
Weather: no significant weather observed at this time

METAR text: EHEH 161009Z AUTO 22010KT 180V250 9999 FEW027 SCT034 BKN041 19/12 Q1020 BLU 22010KT 9999 SCT026 BKN045
Conditions at: EHEH (EINDHOVEN RNLAFB, NL) observed 1009 UTC 16 June 2019
Temperature: 19.0°C (66°F)
Dewpoint: 12.0°C (54°F) [RH = 64%]
Pressure (altimeter): 30.12 inches Hg (1020.0 mb)
Winds: from the SW (220 degrees) at 12 MPH (10 knots; 5.1 m/s)
Visibility: 6 or more miles (10+ km)
Ceiling: 4100 feet AGL
Clouds: few clouds at 2700 feet AGL
scattered clouds at 3400 feet AGL
broken clouds at 4100 feet AGL
scattered clouds at 2600 feet AGL
Weather: no significant weather observed at this time

METAR text: EHEH 160955Z AUTO 20011KT 170V260 9999 SCT026 BKN029 OVC033 19/12 Q1020 BLU 22010KT 9999 BKN026
Conditions at: EHEH (EINDHOVEN RNLAFB, NL) observed 0955 UTC 16 June 2019
Temperature: 19.0°C (66°F)
Dewpoint: 12.0°C (54°F) [RH = 64%]
Pressure (altimeter): 30.12 inches Hg (1020.0 mb)
Winds: from the SSW (200 degrees) at 13 MPH (11 knots; 5.7 m/s)
Visibility: 6 or more miles (10+ km)
Ceiling: 2900 feet AGL
Clouds: scattered clouds at 2600 feet AGL
broken clouds at 2900 feet AGL
overcast cloud deck at 3300 feet AGL
broken clouds at 2600 feet AGL
Weather: no significant weather observed at this time

RUNWAY INFORMATION

Runway 03 Runway length 9843 ft Runway width 148 ft
Runway elevation 73 ft Runway displaced threshold 821 ft Runway heading 35
Runway 21 Runway length 9843 ft Runway width 148 ft
Runway elevation 67 ft Runway displaced threshold 821 ft Runway heading 215

AIRPORT FREQUENCIES

Type APP Name APP Frequency 123.175 MHZ
Type ATIS Name ATIS Frequency 126.025 MHZ
Type DIR Name DIRECTOR Frequency 124.525 MHZ
Type GND Name GND Frequency 121.925 MHZ
Type TWR Name TWR Frequency 131 MHZ

AIRPORT NEAR NAVIGATION AIDS

Type NDB Name Eindhoven Frequency 397 KHZ
Type TACAN Name Eindhoven Frequency 117200 KHZ